Time;durP1;ratioP1;P1;durP2;ratioP2;P2;SDS_P1;SDS_P2;PMS_P1;PMS_P2;Temp;Humidity;BMP_temperature;BMP_pressure;BME280_temperature;BME280_humidity;BME280_pressure;Samples;Min_cycle;Max_cycle;Signal;HPM_P1;HPM_P2
2024/01/07 00:02:15;;;;;;;4.53;3.03;;;;;;;;;;5029812;28;20338;-92
2024/01/07 00:04:42;;;;;;;1.27;1.02;;;;;;;;;;5027718;28;20057;-93
2024/01/07 00:07:10;;;;;;;0.55;0.55;;;;;;;;;;5028275;28;20145;-93
2024/01/07 00:09:45;;;;;;;4.43;2.47;;;;;;;;;;5027528;28;20050;-92
2024/01/07 00:12:26;;;;;;;0.73;0.73;;;;;;;;;;5029124;28;20094;-93
2024/01/07 00:15:05;;;;;;;0.82;0.70;;;;;;;;;;5029206;28;20193;-93
2024/01/07 00:17:44;;;;;;;4.72;2.10;;;;;;;;;;5028429;28;20062;-93
2024/01/07 00:20:12;;;;;;;0.77;0.77;;;;;;;;;;5028548;28;20057;-92
2024/01/07 00:22:51;;;;;;;1.60;1.48;;;;;;;;;;5027117;28;20034;-93
2024/01/07 00:25:21;;;;;;;1.43;1.17;;;;;;;;;;5026045;28;20045;-92
2024/01/07 00:27:55;;;;;;;1.92;1.42;;;;;;;;;;5030104;28;20496;-92
2024/01/07 00:30:26;;;;;;;3.75;2.17;;;;;;;;;;5029857;28;20038;-93
2024/01/07 00:32:57;;;;;;;0.38;0.38;;;;;;;;;;5030254;28;20074;-90
2024/01/07 00:35:27;;;;;;;0.73;0.73;;;;;;;;;;5033892;28;20041;-93
2024/01/07 00:37:58;;;;;;;2.75;1.40;;;;;;;;;;5035051;28;20042;-93
2024/01/07 00:40:26;;;;;;;0.47;0.47;;;;;;;;;;5034175;28;20061;-91
2024/01/07 00:42:55;;;;;;;1.70;1.60;;;;;;;;;;5033200;28;20182;-93
2024/01/07 00:45:28;;;;;;;2.28;1.65;;;;;;;;;;5026406;28;20054;-93
2024/01/07 00:47:57;;;;;;;1.00;0.70;;;;;;;;;;5026201;28;20057;-93
2024/01/07 00:50:30;;;;;;;2.08;1.65;;;;;;;;;;5032737;28;20152;-92
2024/01/07 00:53:02;;;;;;;3.55;2.45;;;;;;;;;;5033307;28;20065;-91
2024/01/07 00:55:42;;;;;;;2.08;1.88;;;;;;;;;;5034198;28;20040;-92
2024/01/07 00:58:10;;;;;;;2.40;1.67;;;;;;;;;;5032092;28;20069;-92
2024/01/07 01:00:43;;;;;;;2.40;1.60;;;;;;;;;;5034386;28;20108;-93
2024/01/07 01:03:11;;;;;;;7.22;2.20;;;;;;;;;;5033257;28;20049;-93
2024/01/07 01:05:42;;;;;;;1.35;1.25;;;;;;;;;;5033125;28;20117;-92
2024/01/07 01:08:21;;;;;;;2.05;0.75;;;;;;;;;;5035303;28;20038;-90
2024/01/07 01:11:14;;;;;;;0.52;0.52;;;;;;;;;;5034413;28;20054;-93
2024/01/07 01:13:42;;;;;;;2.53;1.65;;;;;;;;;;5035115;28;20042;-92
2024/01/07 01:16:15;;;;;;;1.77;1.45;;;;;;;;;;5035297;28;20046;-93
2024/01/07 01:18:43;;;;;;;1.67;1.58;;;;;;;;;;5030841;28;20046;-93
2024/01/07 01:21:11;;;;;;;1.63;1.55;;;;;;;;;;5028409;28;20050;-92
2024/01/07 01:23:41;;;;;;;6.97;2.15;;;;;;;;;;5027768;28;20050;-92
2024/01/07 01:26:09;;;;;;;2.50;1.95;;;;;;;;;;5028216;28;20046;-91
2024/01/07 01:28:38;;;;;;;1.05;0.73;;;;;;;;;;5029274;28;20077;-93
2024/01/07 01:31:08;;;;;;;6.13;3.00;;;;;;;;;;5030454;28;20053;-92
2024/01/07 01:33:42;;;;;;;0.10;0.10;;;;;;;;;;5028712;28;20137;-92
2024/01/07 01:36:11;;;;;;;3.22;2.28;;;;;;;;;;5030843;28;20076;-92
2024/01/07 01:38:40;;;;;;;2.78;1.90;;;;;;;;;;5030576;28;20058;-92
2024/01/07 01:41:09;;;;;;;3.42;3.10;;;;;;;;;;5034648;28;20045;-92
2024/01/07 01:43:38;;;;;;;2.65;1.48;;;;;;;;;;5033891;28;20061;-92
2024/01/07 01:46:07;;;;;;;3.03;2.15;;;;;;;;;;5030308;28;20045;-92
2024/01/07 01:48:41;;;;;;;4.28;2.60;;;;;;;;;;5028375;28;20053;-92
2024/01/07 01:51:10;;;;;;;0.73;0.73;;;;;;;;;;5029165;28;20057;-92
2024/01/07 01:53:44;;;;;;;2.72;2.25;;;;;;;;;;5030939;28;20066;-92
2024/01/07 01:56:25;;;;;;;4.07;2.78;;;;;;;;;;5035739;28;20057;-90
2024/01/07 01:58:59;;;;;;;2.92;2.10;;;;;;;;;;5034730;28;20057;-92
2024/01/07 02:01:27;;;;;;;0.77;0.77;;;;;;;;;;5032999;28;20034;-93
2024/01/07 02:03:55;;;;;;;0.73;0.73;;;;;;;;;;5036747;28;20069;-92
2024/01/07 02:09:47;;;;;;;0.32;0.32;;;;;;;;;;5034447;28;20048;-92
2024/01/07 02:12:19;;;;;;;0.82;0.82;;;;;;;;;;5033600;28;20033;-91
2024/01/07 02:14:55;;;;;;;3.35;1.70;;;;;;;;;;5036690;28;20048;-92
2024/01/07 02:17:26;;;;;;;1.23;1.20;;;;;;;;;;5037241;28;20041;-91
2024/01/07 02:20:04;;;;;;;2.03;1.67;;;;;;;;;;5035200;28;20220;-93
2024/01/07 02:22:35;;;;;;;2.28;1.55;;;;;;;;;;5035982;28;20060;-91
2024/01/07 02:25:08;;;;;;;2.15;1.33;;;;;;;;;;5036173;28;20048;-92
2024/01/07 02:33:32;;;;;;;6.40;2.03;;;;;;;;;;5023775;28;20449;-92
2024/01/07 02:36:05;;;;;;;0.28;0.28;;;;;;;;;;5022907;28;20054;-94
2024/01/07 02:38:35;;;;;;;2.00;1.48;;;;;;;;;;5023738;28;20062;-92
2024/01/07 02:41:03;;;;;;;5.85;1.88;;;;;;;;;;5025071;28;20058;-92
2024/01/07 02:43:31;;;;;;;0.77;0.77;;;;;;;;;;5024838;28;20117;-93
2024/01/07 02:46:01;;;;;;;0.85;0.80;;;;;;;;;;5023430;28;20062;-93
2024/01/07 02:48:30;;;;;;;1.50;0.80;;;;;;;;;;5023031;28;20092;-92
2024/01/07 02:50:59;;;;;;;4.22;1.08;;;;;;;;;;5023505;28;20402;-92
2024/01/07 02:53:31;;;;;;;1.02;0.90;;;;;;;;;;5023722;28;20053;-92
2024/01/07 02:56:02;;;;;;;1.42;0.95;;;;;;;;;;5025035;28;20066;-91
2024/01/07 02:58:33;;;;;;;0.55;0.55;;;;;;;;;;5024656;28;20430;-92
2024/01/07 03:01:10;;;;;;;0.65;0.65;;;;;;;;;;5022485;28;20062;-92
2024/01/07 03:03:38;;;;;;;0.20;0.20;;;;;;;;;;5022849;28;20446;-89
2024/01/07 03:06:19;;;;;;;2.22;1.25;;;;;;;;;;5020372;28;20321;-90
2024/01/07 03:08:50;;;;;;;0.22;0.22;;;;;;;;;;5020452;28;20054;-90
2024/01/07 03:11:22;;;;;;;1.00;0.88;;;;;;;;;;5022275;28;20054;-90
2024/01/07 03:14:11;;;;;;;6.32;1.25;;;;;;;;;;5022695;28;20113;-90
2024/01/07 03:17:29;;;;;;;3.50;1.75;;;;;;;;;;5100518;27;24489;-89
2024/01/07 03:20:10;;;;;;;1.35;0.73;;;;;;;;;;5082174;28;20401;-90
2024/01/07 03:22:51;;;;;;;0.47;0.47;;;;;;;;;;5082062;28;20087;-89
2024/01/07 03:25:26;;;;;;;0.30;0.30;;;;;;;;;;5081948;28;20052;-89
2024/01/07 03:28:06;;;;;;;1.67;1.58;;;;;;;;;;5081780;28;20444;-89
2024/01/07 03:30:37;;;;;;;1.38;1.27;;;;;;;;;;5100715;28;20055;-89
2024/01/07 03:33:20;;;;;;;2.15;1.50;;;;;;;;;;5088305;28;20052;-89
2024/01/07 03:36:06;;;;;;;0.52;0.43;;;;;;;;;;5086482;28;20044;-89
2024/01/07 03:38:41;;;;;;;0.90;0.75;;;;;;;;;;5109745;28;20052;-89
2024/01/07 03:41:25;;;;;;;0.35;0.35;;;;;;;;;;5058519;28;20079;-90
2024/01/07 03:43:57;;;;;;;1.48;0.98;;;;;;;;;;5082034;28;20052;-89
2024/01/07 03:46:39;;;;;;;5.93;1.50;;;;;;;;;;5081924;28;20071;-89
2024/01/07 03:49:08;;;;;;;0.52;0.47;;;;;;;;;;5098063;28;20113;-89
2024/01/07 03:51:47;;;;;;;0.30;0.30;;;;;;;;;;5082609;28;20056;-90
2024/01/07 03:54:18;;;;;;;1.25;1.13;;;;;;;;;;5084485;28;20048;-91
2024/01/07 03:56:51;;;;;;;0.65;0.43;;;;;;;;;;5091802;28;20044;-90
2024/01/07 03:59:31;;;;;;;2.33;1.50;;;;;;;;;;5090560;28;20033;-90
2024/01/07 04:02:16;;;;;;;1.95;1.58;;;;;;;;;;5092606;28;20052;-90
2024/01/07 04:04:46;;;;;;;0.52;0.52;;;;;;;;;;5091560;28;20137;-90
2024/01/07 04:07:18;;;;;;;0.50;0.50;;;;;;;;;;5093208;28;20052;-91
2024/01/07 04:09:48;;;;;;;0.75;0.52;;;;;;;;;;5093556;28;20097;-91
2024/01/07 04:12:22;;;;;;;0.80;0.65;;;;;;;;;;5089871;28;20053;-90
2024/01/07 04:15:04;;;;;;;0.30;0.30;;;;;;;;;;5080371;28;20438;-90
2024/01/07 04:17:32;;;;;;;14.10;1.75;;;;;;;;;;5083764;28;20126;-90
2024/01/07 04:20:29;;;;;;;0.40;0.40;;;;;;;;;;5091643;28;20071;-90
2024/01/07 04:23:18;;;;;;;0.93;0.93;;;;;;;;;;5112436;28;20058;-90
2024/01/07 04:25:50;;;;;;;0.30;0.30;;;;;;;;;;5385204;22;20048;-90
2024/01/07 04:31:42;;;;;;;0.70;0.70;;;;;;;;;;5095043;28;20095;-89
2024/01/07 04:34:21;;;;;;;0.30;0.30;;;;;;;;;;5083607;28;20049;-90
2024/01/07 04:36:48;;;;;;;0.60;0.60;;;;;;;;;;5083041;28;20337;-90
2024/01/07 04:39:22;;;;;;;0.40;0.32;;;;;;;;;;5083277;28;20104;-89
2024/01/07 04:41:51;;;;;;;0.50;0.32;;;;;;;;;;5083653;28;20059;-89
2024/01/07 04:44:19;;;;;;;1.67;1.00;;;;;;;;;;5082402;28;20049;-90
2024/01/07 04:46:49;;;;;;;1.08;0.73;;;;;;;;;;5080910;28;20060;-90
2024/01/07 04:49:44;;;;;;;1.95;1.08;;;;;;;;;;5081536;28;20053;-89
2024/01/07 04:52:14;;;;;;;0.32;0.32;;;;;;;;;;5080378;28;20078;-90
2024/01/07 04:54:45;;;;;;;2.28;1.17;;;;;;;;;;5082397;28;20084;-90
2024/01/07 04:57:16;;;;;;;3.10;0.82;;;;;;;;;;5086181;28;20052;-90
2024/01/07 04:59:45;;;;;;;0.73;0.73;;;;;;;;;;5084693;28;20129;-89
2024/01/07 05:05:38;;;;;;;2.63;0.93;;;;;;;;;;5084375;28;20119;-90
2024/01/07 05:08:08;;;;;;;0.20;0.20;;;;;;;;;;5084704;28;20075;-90
2024/01/07 05:10:36;;;;;;;2.75;0.50;;;;;;;;;;5094995;28;20056;-90
2024/01/07 05:13:06;;;;;;;1.00;0.70;;;;;;;;;;5096532;28;20067;-90
2024/01/07 05:15:33;;;;;;;0.90;0.85;;;;;;;;;;5082908;28;20048;-90
2024/01/07 05:18:02;;;;;;;0.40;0.40;;;;;;;;;;5081276;28;20079;-90
2024/01/07 05:20:30;;;;;;;0.57;0.35;;;;;;;;;;5081093;28;20126;-90
2024/01/07 05:23:24;;;;;;;0.40;0.40;;;;;;;;;;5085539;28;20032;-91
2024/01/07 05:29:06;;;;;;;0.85;0.60;;;;;;;;;;5269719;22;20149;-89
2024/01/07 05:31:36;;;;;;;0.45;0.45;;;;;;;;;;4986787;28;20081;-89
2024/01/07 05:34:05;;;;;;;0.28;0.28;;;;;;;;;;5004855;28;20085;-90
2024/01/07 05:36:35;;;;;;;0.50;0.50;;;;;;;;;;4991667;28;20058;-90
2024/01/07 05:39:06;;;;;;;0.88;0.65;;;;;;;;;;5001717;28;20136;-91
2024/01/07 05:41:33;;;;;;;1.15;1.10;;;;;;;;;;4985207;28;20166;-90
2024/01/07 05:44:26;;;;;;;0.75;0.75;;;;;;;;;;4985619;28;20516;-90
2024/01/07 05:46:56;;;;;;;0.68;0.52;;;;;;;;;;4985636;28;20054;-90
2024/01/07 05:49:24;;;;;;;2.05;1.15;;;;;;;;;;4986466;28;20066;-90
2024/01/07 05:51:52;;;;;;;2.65;0.50;;;;;;;;;;4985920;28;20385;-89
2024/01/07 05:54:23;;;;;;;0.35;0.35;;;;;;;;;;4985368;28;20080;-89
2024/01/07 05:56:55;;;;;;;0.30;0.30;;;;;;;;;;4985571;28;20078;-90
2024/01/07 05:59:31;;;;;;;0.20;0.20;;;;;;;;;;4987555;28;20058;-91
2024/01/07 06:01:59;;;;;;;0.45;0.30;;;;;;;;;;4985385;28;20092;-90
2024/01/07 06:04:30;;;;;;;0.20;0.20;;;;;;;;;;4985789;28;20084;-90
2024/01/07 06:07:03;;;;;;;0.52;0.52;;;;;;;;;;4985142;28;20060;-90
2024/01/07 06:09:44;;;;;;;0.10;0.10;;;;;;;;;;4989230;28;20057;-91
2024/01/07 06:12:13;;;;;;;0.57;0.55;;;;;;;;;;4991653;28;20094;-91
2024/01/07 06:14:41;;;;;;;1.30;1.17;;;;;;;;;;4984739;28;20120;-91
2024/01/07 06:17:10;;;;;;;0.43;0.43;;;;;;;;;;4985013;28;20054;-91
2024/01/07 06:19:41;;;;;;;0.20;0.20;;;;;;;;;;4986455;28;20058;-90
2024/01/07 06:22:11;;;;;;;0.70;0.70;;;;;;;;;;4985810;28;20050;-90
2024/01/07 06:24:39;;;;;;;0.32;0.32;;;;;;;;;;4985489;28;20061;-90
2024/01/07 06:27:15;;;;;;;0.20;0.20;;;;;;;;;;4986928;28;20054;-90
2024/01/07 06:29:51;;;;;;;1.65;0.60;;;;;;;;;;4987011;28;20086;-90
2024/01/07 06:32:21;;;;;;;0.57;0.57;;;;;;;;;;4995917;28;20334;-90
2024/01/07 06:34:53;;;;;;;1.00;1.00;;;;;;;;;;4987353;28;20055;-90
2024/01/07 06:37:20;;;;;;;0.28;0.28;;;;;;;;;;5003275;28;20145;-90
2024/01/07 06:39:48;;;;;;;0.47;0.47;;;;;;;;;;4987728;28;20085;-90
2024/01/07 06:42:19;;;;;;;0.20;0.20;;;;;;;;;;4985412;28;20054;-89
2024/01/07 06:44:49;;;;;;;0.28;0.28;;;;;;;;;;4985498;28;20055;-90
2024/01/07 06:47:16;;;;;;;0.75;0.50;;;;;;;;;;5000990;28;20062;-90
2024/01/07 06:49:47;;;;;;;0.20;0.20;;;;;;;;;;4985349;28;20062;-90
2024/01/07 06:52:19;;;;;;;0.20;0.20;;;;;;;;;;4985633;28;20085;-90
2024/01/07 06:54:47;;;;;;;0.20;0.20;;;;;;;;;;4985352;28;20054;-88
2024/01/07 06:57:28;;;;;;;1.10;0.60;;;;;;;;;;4983167;28;20290;-90
2024/01/07 06:59:57;;;;;;;0.20;0.20;;;;;;;;;;4986146;28;20313;-90
2024/01/07 07:02:29;;;;;;;0.20;0.20;;;;;;;;;;4986220;28;20108;-89
2024/01/07 07:05:03;;;;;;;0.22;0.22;;;;;;;;;;4994868;28;20053;-90
2024/01/07 07:07:33;;;;;;;0.30;0.30;;;;;;;;;;4998516;28;20065;-91
2024/01/07 07:10:03;;;;;;;0.22;0.22;;;;;;;;;;4998934;28;20057;-90
2024/01/07 07:12:35;;;;;;;0.30;0.30;;;;;;;;;;5015271;28;20081;-90
2024/01/07 07:15:05;;;;;;;0.30;0.30;;;;;;;;;;4998818;28;20050;-90
2024/01/07 07:17:37;;;;;;;0.20;0.20;;;;;;;;;;4997910;28;20103;-90
2024/01/07 07:20:19;;;;;;;0.20;0.20;;;;;;;;;;4986148;28;20058;-91
2024/01/07 07:22:48;;;;;;;0.20;0.20;;;;;;;;;;4984205;28;20050;-90
2024/01/07 07:25:20;;;;;;;0.20;0.20;;;;;;;;;;4984028;28;20054;-90
2024/01/07 07:27:52;;;;;;;0.52;0.40;;;;;;;;;;4984443;28;20054;-90
2024/01/07 07:30:22;;;;;;;0.30;0.30;;;;;;;;;;4987015;28;20133;-90
2024/01/07 07:32:50;;;;;;;0.10;0.10;;;;;;;;;;4988658;28;20050;-90
2024/01/07 07:35:24;;;;;;;0.47;0.20;;;;;;;;;;4982629;28;20125;-90
2024/01/07 07:38:06;;;;;;;0.35;0.35;;;;;;;;;;4986557;28;20047;-89
2024/01/07 07:40:34;;;;;;;0.20;0.20;;;;;;;;;;4984189;28;20483;-91
2024/01/07 07:43:07;;;;;;;0.10;0.10;;;;;;;;;;4984666;28;20061;-91
2024/01/07 07:45:39;;;;;;;0.40;0.40;;;;;;;;;;4985591;28;20054;-90
2024/01/07 07:48:08;;;;;;;0.20;0.20;;;;;;;;;;4983587;28;20135;-91
2024/01/07 07:50:37;;;;;;;0.30;0.30;;;;;;;;;;4987613;28;20077;-90
2024/01/07 07:53:05;;;;;;;0.57;0.57;;;;;;;;;;5004006;28;20270;-90
2024/01/07 07:55:51;;;;;;;0.10;0.10;;;;;;;;;;5001801;28;20085;-90
2024/01/07 07:58:22;;;;;;;0.20;0.20;;;;;;;;;;5002132;28;20050;-90
2024/01/07 08:00:55;;;;;;;0.20;0.20;;;;;;;;;;5006299;28;20050;-90
2024/01/07 08:03:31;;;;;;;0.20;0.20;;;;;;;;;;5004863;28;20144;-90
2024/01/07 08:06:04;;;;;;;0.20;0.20;;;;;;;;;;5011063;28;20049;-90
2024/01/07 08:08:38;;;;;;;0.30;0.30;;;;;;;;;;5010538;28;20047;-90
2024/01/07 08:11:08;;;;;;;0.57;0.57;;;;;;;;;;5005577;28;20046;-90
2024/01/07 08:13:38;;;;;;;0.20;0.20;;;;;;;;;;5005799;28;20050;-93
2024/01/07 08:16:06;;;;;;;0.20;0.20;;;;;;;;;;5008813;28;20386;-92
2024/01/07 08:18:34;;;;;;;0.20;0.10;;;;;;;;;;5004999;28;20466;-93
2024/01/07 08:21:02;;;;;;;0.20;0.20;;;;;;;;;;5003996;28;20105;-93
2024/01/07 08:23:30;;;;;;;0.22;0.22;;;;;;;;;;5004472;28;20144;-92
2024/01/07 08:25:58;;;;;;;0.40;0.40;;;;;;;;;;5005165;28;20042;-92
2024/01/07 08:28:26;;;;;;;0.22;0.22;;;;;;;;;;5005159;28;20478;-92
2024/01/07 08:30:54;;;;;;;0.20;0.20;;;;;;;;;;5003992;28;20389;-92
2024/01/07 08:33:21;;;;;;;0.20;0.20;;;;;;;;;;5002285;28;20058;-93
2024/01/07 08:35:48;;;;;;;0.20;0.20;;;;;;;;;;5004349;28;20089;-93
2024/01/07 08:38:16;;;;;;;0.20;0.20;;;;;;;;;;5003275;28;20051;-92
2024/01/07 08:40:43;;;;;;;0.17;0.17;;;;;;;;;;5002284;28;20447;-93
2024/01/07 08:43:12;;;;;;;0.20;0.20;;;;;;;;;;5002976;28;20054;-93
2024/01/07 08:45:51;;;;;;;0.20;0.20;;;;;;;;;;5005459;28;20058;-93
2024/01/07 08:48:32;;;;;;;0.20;0.20;;;;;;;;;;5003395;28;20056;-91
2024/01/07 08:51:06;;;;;;;0.20;0.20;;;;;;;;;;5004324;28;20050;-92
2024/01/07 08:53:35;;;;;;;0.20;0.20;;;;;;;;;;5007310;28;20521;-92
2024/01/07 08:56:09;;;;;;;0.13;0.13;;;;;;;;;;5009621;28;20061;-92
2024/01/07 08:58:42;;;;;;;0.10;0.10;;;;;;;;;;5025770;28;20334;-92
2024/01/07 09:01:10;;;;;;;0.40;0.40;;;;;;;;;;5023455;28;20041;-93
2024/01/07 09:03:42;;;;;;;0.20;0.20;;;;;;;;;;5023893;28;20060;-93
2024/01/07 09:06:09;;;;;;;3.70;0.65;;;;;;;;;;5014531;28;20057;-92
2024/01/07 09:08:37;;;;;;;0.10;0.10;;;;;;;;;;5010732;28;20045;-92
2024/01/07 09:11:06;;;;;;;0.73;0.73;;;;;;;;;;5029118;28;20057;-92
2024/01/07 09:13:34;;;;;;;0.20;0.20;;;;;;;;;;5005999;28;20056;-94
2024/01/07 09:16:02;;;;;;;0.47;0.47;;;;;;;;;;5021289;28;20046;-93
2024/01/07 09:18:30;;;;;;;0.20;0.20;;;;;;;;;;5004107;28;20050;-92
2024/01/07 09:20:59;;;;;;;0.20;0.20;;;;;;;;;;5003947;28;20056;-92
2024/01/07 09:23:27;;;;;;;0.20;0.20;;;;;;;;;;5023566;28;20049;-91
2024/01/07 09:25:57;;;;;;;0.30;0.30;;;;;;;;;;5009587;28;20045;-93
2024/01/07 09:28:27;;;;;;;0.20;0.20;;;;;;;;;;5005724;28;20054;-92
2024/01/07 09:30:58;;;;;;;0.20;0.20;;;;;;;;;;5011701;28;20073;-93
2024/01/07 09:33:26;;;;;;;0.20;0.20;;;;;;;;;;5005920;28;20144;-92
2024/01/07 09:36:00;;;;;;;0.20;0.20;;;;;;;;;;5005469;28;20053;-92
2024/01/07 09:38:45;;;;;;;0.13;0.13;;;;;;;;;;5008893;28;20378;-93
2024/01/07 09:41:13;;;;;;;0.32;0.32;;;;;;;;;;5007624;28;20121;-93
2024/01/07 09:43:41;;;;;;;0.20;0.20;;;;;;;;;;5006080;28;20096;-92
2024/01/07 09:46:10;;;;;;;0.32;0.20;;;;;;;;;;5022580;28;20080;-92
2024/01/07 09:48:38;;;;;;;0.47;0.47;;;;;;;;;;5021170;28;20057;-92
2024/01/07 09:51:09;;;;;;;2.22;0.40;;;;;;;;;;5004187;28;20054;-92
2024/01/07 09:53:43;;;;;;;0.20;0.20;;;;;;;;;;5022178;28;20069;-92
2024/01/07 09:56:18;;;;;;;0.30;0.30;;;;;;;;;;5009887;28;20109;-93
2024/01/07 09:58:50;;;;;;;0.45;0.45;;;;;;;;;;5013272;28;20137;-92
2024/01/07 10:01:22;;;;;;;0.93;0.93;;;;;;;;;;5009035;28;20084;-92
2024/01/07 10:03:50;;;;;;;1.70;1.42;;;;;;;;;;5012108;28;20108;-93
2024/01/07 10:06:23;;;;;;;1.00;0.88;;;;;;;;;;5029325;28;20347;-91
2024/01/07 10:09:06;;;;;;;0.57;0.57;;;;;;;;;;5008601;28;20046;-89
2024/01/07 10:11:35;;;;;;;0.10;0.10;;;;;;;;;;5007904;28;20056;-92
2024/01/07 10:14:05;;;;;;;0.20;0.20;;;;;;;;;;5005728;28;20117;-91
2024/01/07 10:16:35;;;;;;;0.40;0.40;;;;;;;;;;5022218;28;20060;-91
2024/01/07 10:19:07;;;;;;;0.77;0.60;;;;;;;;;;5010940;28;20161;-92
2024/01/07 10:21:35;;;;;;;0.20;0.20;;;;;;;;;;5006735;28;20165;-92
2024/01/07 10:24:15;;;;;;;1.95;0.20;;;;;;;;;;5006805;28;20049;-93
2024/01/07 10:26:44;;;;;;;0.90;0.70;;;;;;;;;;5025757;28;20053;-93
2024/01/07 10:29:15;;;;;;;0.57;0.57;;;;;;;;;;5005225;28;20308;-90
2024/01/07 10:31:43;;;;;;;0.30;0.30;;;;;;;;;;5004365;28;20262;-93
2024/01/07 10:34:16;;;;;;;0.40;0.28;;;;;;;;;;5005749;28;20393;-91
2024/01/07 10:36:46;;;;;;;1.42;1.05;;;;;;;;;;5003780;28;20141;-92
2024/01/07 10:39:18;;;;;;;3.33;1.20;;;;;;;;;;5002857;28;20170;-92
2024/01/07 10:41:47;;;;;;;1.35;0.95;;;;;;;;;;5001768;28;20052;-92
2024/01/07 10:44:15;;;;;;;0.20;0.20;;;;;;;;;;5003362;28;20050;-92
2024/01/07 10:46:46;;;;;;;0.38;0.38;;;;;;;;;;5003668;28;20132;-91
2024/01/07 10:49:19;;;;;;;0.52;0.45;;;;;;;;;;5020276;28;20073;-93
2024/01/07 10:52:05;;;;;;;0.32;0.32;;;;;;;;;;5020666;28;20084;-93
2024/01/07 10:54:36;;;;;;;0.85;0.80;;;;;;;;;;5003528;28;20057;-91
2024/01/07 10:57:14;;;;;;;0.52;0.52;;;;;;;;;;5019713;28;20389;-92
2024/01/07 10:59:44;;;;;;;0.60;0.38;;;;;;;;;;5025273;28;20064;-92
2024/01/07 11:02:13;;;;;;;0.80;0.55;;;;;;;;;;5031956;28;20033;-91
2024/01/07 11:08:13;;;;;;;0.47;0.45;;;;;;;;;;5018859;28;20060;-92
2024/01/07 11:10:48;;;;;;;0.20;0.20;;;;;;;;;;5001214;28;20080;-92
2024/01/07 11:13:38;;;;;;;0.40;0.40;;;;;;;;;;5018936;28;20283;-93
2024/01/07 11:16:11;;;;;;;0.10;0.10;;;;;;;;;;5002640;28;20073;-92
2024/01/07 11:18:45;;;;;;;1.65;1.55;;;;;;;;;;4999708;28;20332;-92
2024/01/07 11:21:27;;;;;;;5.00;4.60;;;;;;;;;;5005001;28;20060;-92
2024/01/07 11:24:07;;;;;;;0.30;0.30;;;;;;;;;;5012341;28;20054;-92
2024/01/07 11:26:36;;;;;;;0.25;0.25;;;;;;;;;;5018676;28;20061;-90
2024/01/07 11:29:04;;;;;;;2.50;0.75;;;;;;;;;;5018347;28;20065;-91
2024/01/07 11:31:47;;;;;;;0.20;0.20;;;;;;;;;;5000328;28;20349;-92
2024/01/07 11:34:33;;;;;;;3.10;1.30;;;;;;;;;;5000148;28;20429;-92
2024/01/07 11:37:01;;;;;;;0.13;0.13;;;;;;;;;;5022858;28;20049;-93
2024/01/07 11:39:29;;;;;;;0.30;0.30;;;;;;;;;;5005616;28;20046;-91
2024/01/07 11:41:57;;;;;;;0.95;0.60;;;;;;;;;;5007096;28;20113;-92
2024/01/07 11:44:24;;;;;;;3.85;0.63;;;;;;;;;;5012562;28;20110;-91
2024/01/07 11:46:57;;;;;;;2.08;0.47;;;;;;;;;;5000656;28;20054;-91
2024/01/07 11:49:27;;;;;;;0.55;0.55;;;;;;;;;;5001908;28;20077;-91
2024/01/07 11:52:02;;;;;;;0.10;0.10;;;;;;;;;;5003059;28;20360;-91
2024/01/07 11:54:32;;;;;;;0.82;0.82;;;;;;;;;;4999416;28;20131;-91
2024/01/07 11:57:06;;;;;;;0.20;0.20;;;;;;;;;;5000013;28;20460;-91
2024/01/07 11:59:34;;;;;;;0.10;0.10;;;;;;;;;;4999637;28;20436;-91
2024/01/07 12:02:15;;;;;;;0.20;0.20;;;;;;;;;;4999490;28;20116;-91
2024/01/07 12:04:49;;;;;;;0.30;0.30;;;;;;;;;;5002151;28;20491;-92
2024/01/07 12:07:21;;;;;;;0.10;0.10;;;;;;;;;;5007557;28;20050;-92
2024/01/07 12:10:04;;;;;;;2.97;1.58;;;;;;;;;;5005179;28;20054;-90
2024/01/07 12:12:35;;;;;;;0.20;0.20;;;;;;;;;;5001486;28;20514;-90
2024/01/07 12:15:05;;;;;;;0.20;0.20;;;;;;;;;;4998671;28;20103;-89
2024/01/07 12:17:42;;;;;;;0.20;0.20;;;;;;;;;;4997893;28;20085;-89
2024/01/07 12:20:26;;;;;;;0.20;0.20;;;;;;;;;;4999624;28;20065;-90
2024/01/07 12:23:10;;;;;;;0.55;0.32;;;;;;;;;;5000409;28;20418;-91
2024/01/07 12:25:39;;;;;;;3.20;1.58;;;;;;;;;;5004869;28;20054;-90
2024/01/07 12:28:09;;;;;;;0.35;0.35;;;;;;;;;;5009108;28;20145;-91
2024/01/07 12:30:39;;;;;;;0.52;0.52;;;;;;;;;;5004513;28;20050;-91
2024/01/07 12:33:08;;;;;;;0.30;0.30;;;;;;;;;;5002396;28;20058;-91
2024/01/07 12:35:39;;;;;;;2.10;0.43;;;;;;;;;;5002392;28;20108;-90
2024/01/07 12:38:12;;;;;;;0.70;0.70;;;;;;;;;;4998328;28;20050;-91
2024/01/07 12:40:40;;;;;;;0.20;0.20;;;;;;;;;;4999248;28;20210;-91
2024/01/07 12:43:10;;;;;;;0.20;0.20;;;;;;;;;;4999954;28;20061;-91
2024/01/07 12:45:39;;;;;;;0.20;0.20;;;;;;;;;;5001006;28;20042;-90
2024/01/07 12:48:08;;;;;;;0.65;0.65;;;;;;;;;;5000168;28;20054;-91
2024/01/07 12:50:40;;;;;;;0.20;0.20;;;;;;;;;;5001913;28;20050;-92
2024/01/07 12:53:10;;;;;;;0.30;0.25;;;;;;;;;;5004343;28;20054;-91
2024/01/07 12:55:44;;;;;;;1.23;1.05;;;;;;;;;;5005749;28;20062;-90
2024/01/07 12:58:20;;;;;;;0.17;0.17;;;;;;;;;;4996620;28;20095;-91
2024/01/07 13:00:49;;;;;;;0.20;0.20;;;;;;;;;;5003432;28;20354;-91
2024/01/07 13:03:17;;;;;;;0.10;0.10;;;;;;;;;;4999119;28;20141;-91
2024/01/07 13:05:48;;;;;;;0.45;0.40;;;;;;;;;;4998800;28;20050;-91
2024/01/07 13:08:18;;;;;;;1.10;1.02;;;;;;;;;;4998122;28;20081;-91
2024/01/07 13:10:53;;;;;;;0.45;0.45;;;;;;;;;;4997448;28;20121;-90
2024/01/07 13:13:25;;;;;;;0.20;0.20;;;;;;;;;;4997689;28;20046;-91
2024/01/07 13:15:53;;;;;;;0.20;0.20;;;;;;;;;;4996941;28;20058;-90
2024/01/07 13:18:23;;;;;;;0.10;0.10;;;;;;;;;;4997821;28;20064;-91
2024/01/07 13:20:52;;;;;;;1.15;0.73;;;;;;;;;;4998501;28;20050;-90
2024/01/07 13:23:20;;;;;;;0.55;0.55;;;;;;;;;;5000004;28;20052;-90
2024/01/07 13:25:48;;;;;;;0.15;0.15;;;;;;;;;;4995682;28;20070;-91
2024/01/07 13:28:20;;;;;;;0.10;0.10;;;;;;;;;;4997973;28;20544;-91
2024/01/07 13:30:57;;;;;;;0.20;0.20;;;;;;;;;;4996032;28;20128;-91
2024/01/07 13:33:25;;;;;;;1.15;1.05;;;;;;;;;;4996651;28;20058;-90
2024/01/07 13:35:55;;;;;;;2.83;0.52;;;;;;;;;;4996588;28;20050;-90
2024/01/07 13:38:24;;;;;;;0.20;0.20;;;;;;;;;;4997138;28;20054;-91
2024/01/07 13:40:55;;;;;;;0.20;0.20;;;;;;;;;;4998954;28;20102;-91
2024/01/07 13:43:29;;;;;;;0.20;0.20;;;;;;;;;;4998465;28;20250;-90
2024/01/07 13:46:02;;;;;;;0.20;0.20;;;;;;;;;;5001571;28;20048;-91
2024/01/07 13:48:30;;;;;;;0.10;0.10;;;;;;;;;;4998061;28;20114;-91
2024/01/07 13:51:03;;;;;;;0.13;0.13;;;;;;;;;;4995866;28;20050;-91
2024/01/07 13:53:31;;;;;;;0.60;0.50;;;;;;;;;;4996442;28;20085;-91
2024/01/07 13:56:00;;;;;;;0.20;0.20;;;;;;;;;;5006052;28;20058;-91
2024/01/07 13:58:30;;;;;;;0.17;0.17;;;;;;;;;;5009157;28;20050;-91
2024/01/07 14:01:14;;;;;;;0.50;0.50;;;;;;;;;;5005603;28;20042;-90
2024/01/07 14:03:43;;;;;;;0.20;0.20;;;;;;;;;;5003260;28;20104;-90
2024/01/07 14:06:14;;;;;;;0.20;0.20;;;;;;;;;;5024297;28;20064;-91
2024/01/07 14:08:44;;;;;;;0.17;0.17;;;;;;;;;;5012049;28;20129;-91
2024/01/07 14:11:13;;;;;;;0.50;0.50;;;;;;;;;;5009917;28;20194;-91
2024/01/07 14:13:45;;;;;;;0.45;0.45;;;;;;;;;;4999108;28;20113;-91
2024/01/07 14:16:15;;;;;;;0.28;0.28;;;;;;;;;;5000387;28;20061;-91
2024/01/07 14:18:57;;;;;;;0.35;0.35;;;;;;;;;;5003133;28;20072;-91
2024/01/07 14:21:28;;;;;;;0.50;0.50;;;;;;;;;;5000966;28;20136;-91
2024/01/07 14:23:58;;;;;;;0.30;0.30;;;;;;;;;;4999295;28;20319;-91
2024/01/07 14:26:27;;;;;;;0.40;0.40;;;;;;;;;;5000592;28;20057;-91
2024/01/07 14:28:54;;;;;;;1.20;1.15;;;;;;;;;;4998458;28;20054;-91
2024/01/07 14:31:41;;;;;;;0.47;0.47;;;;;;;;;;5002168;28;20061;-91
2024/01/07 14:34:11;;;;;;;0.55;0.55;;;;;;;;;;5000457;28;20137;-90
2024/01/07 14:36:52;;;;;;;0.30;0.30;;;;;;;;;;5001503;28;20133;-91
2024/01/07 14:39:23;;;;;;;0.20;0.20;;;;;;;;;;5000665;28;20138;-91
2024/01/07 14:41:56;;;;;;;0.20;0.20;;;;;;;;;;5005620;28;20250;-91
2024/01/07 14:44:32;;;;;;;0.20;0.20;;;;;;;;;;5000647;28;20334;-91
2024/01/07 14:47:17;;;;;;;0.15;0.15;;;;;;;;;;5000931;28;20392;-91
2024/01/07 14:49:49;;;;;;;0.20;0.20;;;;;;;;;;4999854;28;20108;-89
2024/01/07 14:52:33;;;;;;;0.30;0.30;;;;;;;;;;4997686;28;20069;-91
2024/01/07 14:55:07;;;;;;;0.25;0.25;;;;;;;;;;5018549;28;20389;-91
2024/01/07 14:57:36;;;;;;;2.22;1.13;;;;;;;;;;4998616;28;20081;-90
2024/01/07 15:00:13;;;;;;;;;;;;;;;;;;5003575;28;20145;-90
2024/01/07 15:02:42;;;;;;;0.20;0.20;;;;;;;;;;5005401;28;20225;-91
2024/01/07 15:05:23;;;;;;;0.22;0.22;;;;;;;;;;5003992;28;20116;-90
2024/01/07 15:08:04;;;;;;;2.22;0.73;;;;;;;;;;5005612;28;20406;-90
2024/01/07 15:10:35;;;;;;;0.10;0.10;;;;;;;;;;5003123;28;20111;-91
2024/01/07 15:13:06;;;;;;;0.20;0.20;;;;;;;;;;5003487;28;20059;-90
2024/01/07 15:15:49;;;;;;;0.20;0.20;;;;;;;;;;5004008;28;20073;-91
2024/01/07 15:26:02;;;;;;;0.10;0.10;;;;;;;;;;5024215;28;20084;-90
2024/01/07 15:28:36;;;;;;;0.20;0.20;;;;;;;;;;5027559;28;20084;-91
2024/01/07 15:33:43;;;;;;;1.45;1.45;;;;;;;;;;5310452;23;20065;-91
2024/01/07 15:36:11;;;;;;;0.93;0.93;;;;;;;;;;4999837;28;20073;-90
2024/01/07 15:38:51;;;;;;;0.20;0.20;;;;;;;;;;5005192;28;20046;-91
2024/01/07 15:41:22;;;;;;;1.80;1.00;;;;;;;;;;5004638;28;20108;-91
2024/01/07 15:44:03;;;;;;;0.20;0.20;;;;;;;;;;5005236;28;20068;-91
2024/01/07 15:46:31;;;;;;;0.20;0.20;;;;;;;;;;5005138;28;20053;-91
2024/01/07 15:49:08;;;;;;;0.30;0.30;;;;;;;;;;5004207;28;20079;-91